createdAt,value
2018-11-05T00:02:20.911Z,104.27
2018-11-05T00:04:49.201Z,108.93
2018-11-05T00:07:17.523Z,97.53
2018-11-05T00:09:45.761Z,109.50
2018-11-05T00:12:14.048Z,100.20
2018-11-05T00:14:42.490Z,86.60
2018-11-05T00:17:10.884Z,102.40
2018-11-05T00:19:39.218Z,113.13
2018-11-05T00:22:08.197Z,98.07
2018-11-05T00:24:36.531Z,88.33
2018-11-05T00:27:04.891Z,93.97
2018-11-05T00:29:33.250Z,94.03
2018-11-05T00:32:01.522Z,98.43
2018-11-05T00:34:31.297Z,102.90
2018-11-05T00:36:59.802Z,103.17
2018-11-05T00:39:28.100Z,103.57
2018-11-05T00:41:56.391Z,103.30
2018-11-05T00:44:24.785Z,100.30
2018-11-05T00:46:53.369Z,114.40
2018-11-05T00:49:21.648Z,97.60
2018-11-05T00:51:50.030Z,103.87
2018-11-05T00:54:18.424Z,103.37
2018-11-05T00:56:46.845Z,100.77
2018-11-05T00:59:15.457Z,98.20
2018-11-05T01:01:43.972Z,110.57
2018-11-05T01:04:12.476Z,110.80
2018-11-05T01:06:40.839Z,106.93
2018-11-05T01:09:09.405Z,97.53
2018-11-05T01:11:38.452Z,97.10
2018-11-05T01:14:07.586Z,95.47
2018-11-05T01:16:36.032Z,98.13
2018-11-05T01:19:05.018Z,89.63
2018-11-05T01:21:33.383Z,87.77
2018-11-05T01:24:01.670Z,92.50
2018-11-05T01:26:30.265Z,91.50
2018-11-05T01:28:58.627Z,94.00
2018-11-05T01:31:26.915Z,87.90
2018-11-05T01:33:55.412Z,96.97
2018-11-05T01:36:24.950Z,90.87
2018-11-05T01:38:53.267Z,91.37
2018-11-05T01:41:21.740Z,84.13
2018-11-05T01:43:50.421Z,83.43
2018-11-05T01:46:18.659Z,93.53
2018-11-05T01:48:46.901Z,89.73
2018-11-05T01:51:15.296Z,87.60
2018-11-05T01:53:43.544Z,100.53
2018-11-05T01:56:11.950Z,89.90
2018-11-05T01:58:40.322Z,92.90
2018-11-05T02:01:08.737Z,91.93
2018-11-05T02:03:37.100Z,83.83
2018-11-05T02:06:05.549Z,90.53
2018-11-05T02:08:33.956Z,105.10
2018-11-05T02:11:02.383Z,91.70
2018-11-05T02:13:30.955Z,105.00
2018-11-05T02:15:59.191Z,97.60
2018-11-05T02:18:28.211Z,103.57
2018-11-05T02:20:56.583Z,89.63
2018-11-05T02:23:24.831Z,80.47
2018-11-05T02:25:53.200Z,91.60
2018-11-05T02:28:21.502Z,108.70
2018-11-05T02:30:49.784Z,94.90
2018-11-05T02:33:18.140Z,102.90
2018-11-05T02:35:46.525Z,86.90
2018-11-05T02:38:16.487Z,95.37
2018-11-05T02:40:45.001Z,122.47
2018-11-05T02:43:13.485Z,120.23
2018-11-05T02:45:41.707Z,111.97
2018-11-05T02:48:10.138Z,87.23
2018-11-05T02:50:38.992Z,87.27
2018-11-05T02:53:07.448Z,93.20
2018-11-05T02:55:35.830Z,92.03
2018-11-05T02:58:04.199Z,95.60
2018-11-05T03:00:32.776Z,92.60
2018-11-05T03:03:01.285Z,88.73
2018-11-05T03:05:29.471Z,95.80
2018-11-05T03:07:57.867Z,98.83
2018-11-05T03:10:26.300Z,102.87
2018-11-05T03:12:54.666Z,103.07
2018-11-05T03:15:23.026Z,99.17
2018-11-05T03:17:51.417Z,100.77
2018-11-05T03:20:19.735Z,94.93
2018-11-05T03:22:48.187Z,91.40
2018-11-05T03:25:16.581Z,99.77
2018-11-05T03:27:44.860Z,104.73
2018-11-05T03:30:15.293Z,84.13
2018-11-05T03:32:43.956Z,93.60
2018-11-05T03:35:12.954Z,95.87
2018-11-05T03:37:42.176Z,90.03
2018-11-05T03:40:11.516Z,104.80
2018-11-05T03:42:40.579Z,99.47
2018-11-05T03:45:10.862Z,94.47
2018-11-05T03:47:39.345Z,88.80
2018-11-05T03:50:11.166Z,101.80
2018-11-05T03:52:39.664Z,98.47
2018-11-05T03:55:08.904Z,98.73
2018-11-05T03:57:37.996Z,116.13
2018-11-05T04:00:08.134Z,120.00
2018-11-05T04:02:36.503Z,112.43
2018-11-05T04:05:05.411Z,113.40
2018-11-05T04:07:33.824Z,96.60
2018-11-05T04:10:02.138Z,118.00
2018-11-05T04:12:30.504Z,121.10
2018-11-05T04:14:58.824Z,115.83
2018-11-05T04:17:27.247Z,124.00
2018-11-05T04:19:55.567Z,119.80
2018-11-05T04:22:23.966Z,130.83
2018-11-05T04:24:52.246Z,133.93
2018-11-05T04:27:20.558Z,128.00
2018-11-05T04:29:48.875Z,139.57
2018-11-05T04:32:17.138Z,126.23
2018-11-05T04:34:45.499Z,120.07
2018-11-05T04:37:13.814Z,116.10
2018-11-05T04:39:42.075Z,122.40
2018-11-05T04:42:10.357Z,133.00
2018-11-05T04:44:38.802Z,116.73
2018-11-05T04:47:07.109Z,143.57
2018-11-05T04:49:35.440Z,140.07
2018-11-05T04:52:04.108Z,135.47
2018-11-05T04:54:32.499Z,142.90
2018-11-05T04:57:00.935Z,121.13
2018-11-05T04:59:29.241Z,128.90
2018-11-05T05:01:57.708Z,135.13
2018-11-05T05:04:25.966Z,149.27
2018-11-05T05:06:54.242Z,142.07
2018-11-05T05:09:22.726Z,130.87
2018-11-05T05:11:51.084Z,136.87
2018-11-05T05:14:19.379Z,134.23
2018-11-05T05:16:47.806Z,133.80
2018-11-05T05:19:16.071Z,136.37
2018-11-05T05:21:44.396Z,128.70
2018-11-05T05:24:12.798Z,119.13
2018-11-05T05:26:41.177Z,123.73
2018-11-05T05:29:10.238Z,121.37
2018-11-05T05:31:38.610Z,116.03
2018-11-05T05:34:07.178Z,119.70
2018-11-05T05:36:35.917Z,126.43
2018-11-05T05:39:06.559Z,126.60
2018-11-05T05:41:34.882Z,118.17
2018-11-05T05:44:03.689Z,113.10
2018-11-05T05:46:31.974Z,113.33
2018-11-05T05:49:00.282Z,120.77
2018-11-05T05:51:28.687Z,113.83
2018-11-05T05:53:56.963Z,113.30
2018-11-05T05:56:25.363Z,127.00
2018-11-05T05:58:53.880Z,122.17
2018-11-05T06:01:22.412Z,120.13
2018-11-05T06:03:50.814Z,117.83
2018-11-05T06:06:19.408Z,119.67
2018-11-05T06:08:47.780Z,112.97
2018-11-05T06:11:16.509Z,114.43
2018-11-05T06:13:44.883Z,115.87
2018-11-05T06:16:14.750Z,106.63
2018-11-05T06:18:43.383Z,101.57
2018-11-05T06:21:11.981Z,112.23
2018-11-05T06:23:40.397Z,108.13
2018-11-05T06:26:08.888Z,97.90
2018-11-05T06:28:37.299Z,117.20
2018-11-05T06:31:05.852Z,124.07
2018-11-05T06:33:34.285Z,119.00
2018-11-05T06:36:03.146Z,121.07
2018-11-05T06:38:31.503Z,114.47
2018-11-05T06:41:00.151Z,123.13
2018-11-05T06:43:28.416Z,121.47
2018-11-05T06:45:57.031Z,115.83
2018-11-05T06:48:25.372Z,109.00
2018-11-05T06:50:53.801Z,113.23
2018-11-05T06:53:22.279Z,116.77
2018-11-05T06:55:50.717Z,110.57
2018-11-05T06:58:19.004Z,118.20
2018-11-05T07:00:47.531Z,120.00
2018-11-05T07:03:15.870Z,113.20
2018-11-05T07:05:44.365Z,104.70
2018-11-05T07:08:12.938Z,100.70
2018-11-05T07:10:41.271Z,116.35
2018-11-05T07:13:09.621Z,111.77
2018-11-05T07:15:38.357Z,107.57
2018-11-05T07:18:06.885Z,96.63
2018-11-05T07:20:35.415Z,108.43
2018-11-05T07:23:03.982Z,102.70
2018-11-05T07:25:33.675Z,106.43
2018-11-05T07:28:02.194Z,97.50
2018-11-05T07:30:30.715Z,111.80
2018-11-05T07:32:59.405Z,94.30
2018-11-05T07:35:27.795Z,91.00
2018-11-05T07:37:56.283Z,95.40
2018-11-05T07:40:24.591Z,86.43
2018-11-05T07:42:52.910Z,81.60
2018-11-05T07:45:22.524Z,83.33
2018-11-05T07:47:51.038Z,75.50
2018-11-05T07:50:20.383Z,78.30
2018-11-05T07:52:49.175Z,77.20
2018-11-05T07:55:18.406Z,76.10
2018-11-05T07:57:47.846Z,71.20
2018-11-05T08:00:22.184Z,71.03
2018-11-05T08:02:52.415Z,69.33
2018-11-05T08:05:21.539Z,75.87
2018-11-05T08:07:50.206Z,66.67
2018-11-05T08:10:18.667Z,74.03
2018-11-05T08:12:47.084Z,68.10
2018-11-05T08:15:16.810Z,62.53
2018-11-05T08:17:46.140Z,62.20
2018-11-05T08:20:14.551Z,59.57
2018-11-05T08:22:42.871Z,60.23
2018-11-05T08:25:12.001Z,65.33
2018-11-05T08:27:40.382Z,67.17
2018-11-05T08:30:17.483Z,58.63
2018-11-05T08:32:45.930Z,66.70
2018-11-05T08:35:14.543Z,62.30
2018-11-05T08:37:44.002Z,56.10
2018-11-05T08:40:15.523Z,58.47
2018-11-05T08:42:44.682Z,68.30
2018-11-05T08:45:14.422Z,65.10
2018-11-05T08:47:42.814Z,59.63
2018-11-05T08:50:13.961Z,66.07
2018-11-05T08:52:42.382Z,66.30
2018-11-05T08:55:15.549Z,55.80
2018-11-05T08:57:44.019Z,61.10
2018-11-05T09:00:46.911Z,72.07
2018-11-05T09:03:15.265Z,61.00
2018-11-05T09:05:43.706Z,59.80
2018-11-05T09:08:11.895Z,51.77
2018-11-05T09:10:40.513Z,51.10
2018-11-05T09:13:08.391Z,44.23
2018-11-05T09:15:36.664Z,46.20
2018-11-05T09:18:04.928Z,46.63
2018-11-05T09:20:33.130Z,44.70
2018-11-05T09:23:01.827Z,43.73
2018-11-05T09:25:30.216Z,38.10
2018-11-05T09:27:58.611Z,37.10
2018-11-05T09:30:27.825Z,33.37
2018-11-05T09:32:56.144Z,34.97
2018-11-05T09:35:24.458Z,31.10
2018-11-05T09:37:53.780Z,28.00
2018-11-05T09:40:23.456Z,29.30
2018-11-05T09:42:52.744Z,29.33
2018-11-05T09:45:26.639Z,29.73
2018-11-05T09:47:55.050Z,28.40
2018-11-05T09:50:23.486Z,29.07
2018-11-05T09:52:53.645Z,29.50
2018-11-05T09:55:24.281Z,25.83
2018-11-05T09:57:53.616Z,26.57
2018-11-05T10:00:24.141Z,25.63
2018-11-05T10:02:58.609Z,27.77
2018-11-05T10:05:27.104Z,28.70
2018-11-05T10:07:55.615Z,26.80
2018-11-05T10:10:24.100Z,26.67
2018-11-05T10:12:52.554Z,26.37
2018-11-05T10:15:21.024Z,26.87
2018-11-05T10:20:23.816Z,28.30
2018-11-05T10:22:52.158Z,26.10
2018-11-05T10:25:20.716Z,27.20
2018-11-05T10:27:49.994Z,25.03
2018-11-05T10:30:19.594Z,26.03
2018-11-05T10:32:47.810Z,26.40
2018-11-05T10:35:16.739Z,27.33
2018-11-05T10:37:45.739Z,25.87
2018-11-05T10:40:16.703Z,28.47
2018-11-05T10:42:46.040Z,28.73
2018-11-05T10:45:15.582Z,27.20
2018-11-05T10:47:44.645Z,27.87
2018-11-05T10:50:14.244Z,26.50
2018-11-05T10:52:43.970Z,26.90
2018-11-05T10:55:13.473Z,27.80
2018-11-05T10:57:42.458Z,26.50
2018-11-05T11:00:19.890Z,25.93
2018-11-05T11:02:53.684Z,25.03
2018-11-05T11:05:24.709Z,22.90
2018-11-05T11:07:54.841Z,26.47
2018-11-05T11:10:23.902Z,24.97
2018-11-05T11:12:52.443Z,24.57
2018-11-05T11:15:22.648Z,24.90
2018-11-05T11:17:51.015Z,24.40
2018-11-05T11:20:19.437Z,21.80
2018-11-05T11:22:49.156Z,24.80
2018-11-05T11:25:17.585Z,25.33
2018-11-05T11:27:46.025Z,24.70
2018-11-05T11:30:15.905Z,25.27
2018-11-05T11:32:45.109Z,23.70
2018-11-05T11:35:15.201Z,22.50
2018-11-05T11:37:44.198Z,21.90
2018-11-05T11:40:16.710Z,24.33
2018-11-05T11:42:46.077Z,23.90
2018-11-05T11:45:15.332Z,22.43
2018-11-05T11:47:43.645Z,25.23
2018-11-05T11:50:13.298Z,23.30
2018-11-05T11:52:41.800Z,24.50
2018-11-05T11:55:12.706Z,23.77
2018-11-05T11:57:41.559Z,23.93
2018-11-05T12:00:14.167Z,24.47
2018-11-05T12:02:43.304Z,24.30
2018-11-05T12:05:12.046Z,26.60
2018-11-05T12:07:40.259Z,25.50
2018-11-05T12:10:15.520Z,26.60
2018-11-05T12:12:44.103Z,25.37
2018-11-05T12:15:13.459Z,26.03
2018-11-05T12:17:42.257Z,26.30
2018-11-05T12:20:13.803Z,25.77
2018-11-05T12:22:42.797Z,26.07
2018-11-05T12:25:11.154Z,26.27
2018-11-05T12:27:39.655Z,24.50
2018-11-05T12:30:14.038Z,26.87
2018-11-05T12:32:43.106Z,27.37
2018-11-05T12:35:13.070Z,25.83
2018-11-05T12:37:42.889Z,24.70
2018-11-05T12:40:13.393Z,26.87
2018-11-05T12:42:42.648Z,26.57
2018-11-05T12:45:11.102Z,27.07
2018-11-05T12:47:39.831Z,27.33
2018-11-05T12:50:12.013Z,30.20
2018-11-05T12:52:41.993Z,31.73
2018-11-05T12:55:11.498Z,31.77
2018-11-05T12:57:39.877Z,31.40
2018-11-05T13:00:14.200Z,32.13
2018-11-05T13:02:42.680Z,32.07
2018-11-05T13:05:12.069Z,32.63
2018-11-05T13:07:40.669Z,31.40
2018-11-05T13:10:11.629Z,30.53
2018-11-05T13:12:40.183Z,31.03
2018-11-05T13:15:09.456Z,30.70
2018-11-05T13:17:38.511Z,29.77
2018-11-05T13:20:12.029Z,31.17
2018-11-05T13:22:40.550Z,34.27
2018-11-05T13:25:08.945Z,30.37
2018-11-05T13:27:37.884Z,32.90
2018-11-05T13:30:10.109Z,32.20
2018-11-05T13:32:39.170Z,31.70
2018-11-05T13:35:10.082Z,32.07
2018-11-05T13:37:39.101Z,33.87
2018-11-05T13:40:10.284Z,33.20
2018-11-05T13:42:38.504Z,32.53
2018-11-05T13:45:08.658Z,33.63
2018-11-05T13:47:37.745Z,33.03
2018-11-05T13:50:06.249Z,34.60
2018-11-05T13:52:34.491Z,35.07
2018-11-05T13:55:03.518Z,35.63
2018-11-05T13:57:31.769Z,36.80
2018-11-05T14:00:00.034Z,35.67
2018-11-05T14:02:28.362Z,36.27
2018-11-05T14:04:56.592Z,36.23
2018-11-05T14:07:24.879Z,35.27
2018-11-05T14:09:53.215Z,34.60
2018-11-05T14:12:21.439Z,32.90
2018-11-05T14:14:50.597Z,35.43
2018-11-05T14:17:19.239Z,36.17
2018-11-05T14:19:47.420Z,34.17
2018-11-05T14:22:15.658Z,34.40
2018-11-05T14:24:44.114Z,35.80
2018-11-05T14:27:13.477Z,38.10
2018-11-05T14:29:42.412Z,37.67
2018-11-05T14:32:11.292Z,36.50
2018-11-05T14:34:39.649Z,36.37
2018-11-05T14:37:11.091Z,37.80
2018-11-05T14:39:40.545Z,36.93
2018-11-05T14:42:08.995Z,36.77
2018-11-05T14:44:37.379Z,40.97
2018-11-05T14:47:05.889Z,40.43
2018-11-05T14:49:34.412Z,37.17
2018-11-05T14:52:02.920Z,39.07
2018-11-05T14:54:32.452Z,38.00
2018-11-05T14:57:01.618Z,38.33
2018-11-05T14:59:29.904Z,39.70
2018-11-05T15:02:03.930Z,43.37
2018-11-05T15:04:32.306Z,43.50
2018-11-05T15:07:00.574Z,42.80
2018-11-05T15:09:29.306Z,41.40
2018-11-05T15:11:58.474Z,47.30
2018-11-05T15:14:26.789Z,43.60
2018-11-05T15:16:56.366Z,44.23
2018-11-05T15:19:25.008Z,48.77
2018-11-05T15:21:55.071Z,45.20
2018-11-05T15:24:23.466Z,50.77
2018-11-05T15:26:51.924Z,50.07
2018-11-05T15:29:20.476Z,49.03
2018-11-05T15:31:49.851Z,48.87
2018-11-05T15:34:18.214Z,53.93
2018-11-05T15:36:46.626Z,49.90
2018-11-05T15:39:15.028Z,49.17
2018-11-05T15:41:43.429Z,51.33
2018-11-05T15:44:11.958Z,50.10
2018-11-05T15:46:40.320Z,53.30
2018-11-05T15:49:08.706Z,50.97
2018-11-05T15:51:37.526Z,47.50
2018-11-05T15:54:06.919Z,45.20
2018-11-05T15:56:35.319Z,46.53
2018-11-05T15:59:03.665Z,48.57
2018-11-05T16:01:31.991Z,48.70
2018-11-05T16:04:00.365Z,46.83
2018-11-05T16:06:28.713Z,43.77
2018-11-05T16:08:57.836Z,48.57
2018-11-05T16:11:26.258Z,42.53
2018-11-05T16:13:54.620Z,51.07
2018-11-05T16:16:23.036Z,47.70
2018-11-05T16:18:51.389Z,53.00
2018-11-05T16:21:19.715Z,46.93
2018-11-05T16:23:48.240Z,44.30
2018-11-05T16:26:16.646Z,46.57
2018-11-05T16:28:45.011Z,43.87
2018-11-05T16:31:13.508Z,42.43
2018-11-05T16:33:41.960Z,45.87
2018-11-05T16:36:10.244Z,50.80
2018-11-05T16:38:38.844Z,51.60
2018-11-05T16:41:08.015Z,54.50
2018-11-05T16:43:36.308Z,53.90
2018-11-05T16:46:06.075Z,51.07
2018-11-05T16:48:34.440Z,49.67
2018-11-05T16:51:03.020Z,54.83
2018-11-05T16:53:31.663Z,52.90
2018-11-05T16:55:59.900Z,58.87
2018-11-05T16:58:28.369Z,52.27
2018-11-05T17:00:57.016Z,54.27
2018-11-05T17:03:26.211Z,55.00
2018-11-05T17:05:54.595Z,58.67
2018-11-05T17:08:23.921Z,59.97
2018-11-05T17:10:52.256Z,67.20
2018-11-05T17:13:20.921Z,70.93
2018-11-05T17:15:49.145Z,70.57
2018-11-05T17:18:17.610Z,67.97
2018-11-05T17:20:46.032Z,77.57
2018-11-05T17:23:15.067Z,72.50
2018-11-05T17:25:43.405Z,64.93
2018-11-05T17:28:11.883Z,66.87
2018-11-05T17:30:40.087Z,67.40
2018-11-05T17:33:08.352Z,65.57
2018-11-05T17:35:36.634Z,67.00
2018-11-05T17:38:05.447Z,62.50
2018-11-05T17:40:33.765Z,63.37
2018-11-05T17:43:02.229Z,76.47
2018-11-05T17:45:30.497Z,62.87
2018-11-05T17:47:58.746Z,67.87
2018-11-05T17:50:27.156Z,68.80
2018-11-05T17:52:55.544Z,61.97
2018-11-05T17:55:23.989Z,65.60
2018-11-05T17:57:52.977Z,68.83
2018-11-05T18:00:22.360Z,59.60
2018-11-05T18:02:52.265Z,66.33
2018-11-05T18:05:20.723Z,67.20
2018-11-05T18:07:49.839Z,58.73
2018-11-05T18:10:18.486Z,59.07
2018-11-05T18:12:47.040Z,66.73
2018-11-05T18:15:15.509Z,74.07
2018-11-05T18:17:44.823Z,75.33
2018-11-05T18:20:14.081Z,74.63
2018-11-05T18:22:42.652Z,68.73
2018-11-05T18:25:16.177Z,74.37
2018-11-05T18:27:44.620Z,82.70
2018-11-05T18:30:13.450Z,70.67
2018-11-05T18:32:42.527Z,83.50
2018-11-05T18:35:12.557Z,93.80
2018-11-05T18:37:41.995Z,81.13
2018-11-05T18:40:13.121Z,74.20
2018-11-05T18:42:42.346Z,64.90
2018-11-05T18:45:10.891Z,72.63
2018-11-05T18:47:39.209Z,66.50
2018-11-05T18:50:10.858Z,66.13
2018-11-05T18:52:39.556Z,81.03
2018-11-05T18:55:11.203Z,66.80
2018-11-05T18:57:39.962Z,66.60
2018-11-05T19:00:16.280Z,76.43
2018-11-05T19:02:45.415Z,96.43
2018-11-05T19:05:13.827Z,100.30
2018-11-05T19:07:42.245Z,99.93
2018-11-05T19:10:11.358Z,90.03
2018-11-05T19:12:39.742Z,86.30
2018-11-05T19:15:09.930Z,77.20
2018-11-05T19:17:38.438Z,100.37
2018-11-05T19:20:07.463Z,107.70
2018-11-05T19:22:36.194Z,112.13
2018-11-05T19:25:05.587Z,106.80
2018-11-05T19:27:34.304Z,90.77
2018-11-05T19:30:02.957Z,121.90
2018-11-05T19:32:31.505Z,133.57
2018-11-05T19:34:59.771Z,99.63
2018-11-05T19:37:28.168Z,118.80
2018-11-05T19:39:56.640Z,102.63
2018-11-05T19:42:25.476Z,113.57
2018-11-05T19:44:53.779Z,112.40
2018-11-05T19:47:22.036Z,98.90
2018-11-05T19:49:50.831Z,118.00
2018-11-05T19:52:19.017Z,88.77
2018-11-05T19:54:47.255Z,101.00
2018-11-05T19:57:15.821Z,93.37
2018-11-05T19:59:44.182Z,112.77
2018-11-05T20:02:12.543Z,114.43
2018-11-05T20:04:40.868Z,96.40
2018-11-05T20:07:09.115Z,104.27
2018-11-05T20:09:37.528Z,111.63
2018-11-05T20:12:06.581Z,95.73
2018-11-05T20:14:35.238Z,107.70
2018-11-05T20:17:03.588Z,130.60
2018-11-05T20:19:31.849Z,110.27
2018-11-05T20:22:00.854Z,102.97
2018-11-05T20:24:29.159Z,113.13
2018-11-05T20:26:57.506Z,132.30
2018-11-05T20:29:25.965Z,120.30
2018-11-05T20:31:54.604Z,105.53
2018-11-05T20:34:22.918Z,114.53
2018-11-05T20:36:51.687Z,107.73
2018-11-05T20:39:19.935Z,114.07
2018-11-05T20:41:48.412Z,108.13
2018-11-05T20:44:16.712Z,109.53
2018-11-05T20:46:45.214Z,107.97
2018-11-05T20:49:13.378Z,113.90
2018-11-05T20:51:41.771Z,102.40
2018-11-05T20:54:10.073Z,103.00
2018-11-05T20:56:38.792Z,118.73
2018-11-05T20:59:07.742Z,115.27
2018-11-05T21:01:35.995Z,118.07
2018-11-05T21:04:04.456Z,118.23
2018-11-05T21:06:32.792Z,114.83
2018-11-05T21:09:01.059Z,113.30
2018-11-05T21:11:29.387Z,115.17
2018-11-05T21:13:57.805Z,106.60
2018-11-05T21:16:26.125Z,104.00
2018-11-05T21:18:54.471Z,101.87
2018-11-05T21:21:22.816Z,114.87
2018-11-05T21:23:51.058Z,110.40
2018-11-05T21:26:19.411Z,107.50
2018-11-05T21:28:47.639Z,118.07
2018-11-05T21:31:15.864Z,112.23
2018-11-05T21:33:44.374Z,110.07
2018-11-05T21:36:12.657Z,111.00
2018-11-05T21:38:40.909Z,103.80
2018-11-05T21:41:09.242Z,115.60
2018-11-05T21:43:37.541Z,115.43
2018-11-05T21:46:06.371Z,122.83
2018-11-05T21:48:34.755Z,125.43
2018-11-05T21:51:02.991Z,134.13
2018-11-05T21:53:31.242Z,143.77
2018-11-05T21:55:59.560Z,124.10
2018-11-05T21:58:27.799Z,112.27
2018-11-05T22:00:56.159Z,127.30
2018-11-05T22:03:24.616Z,146.57
2018-11-05T22:05:52.836Z,118.20
2018-11-05T22:08:21.259Z,124.20
2018-11-05T22:10:49.608Z,117.17
2018-11-05T22:13:17.975Z,135.17
2018-11-05T22:15:47.221Z,110.93
2018-11-05T22:18:16.396Z,130.40
2018-11-05T22:20:44.597Z,105.33
2018-11-05T22:23:13.006Z,97.77
2018-11-05T22:25:41.231Z,104.13
2018-11-05T22:28:09.585Z,102.77
2018-11-05T22:30:37.815Z,88.40
2018-11-05T22:33:06.385Z,101.87
2018-11-05T22:35:34.687Z,134.73
2018-11-05T22:38:02.981Z,113.90
2018-11-05T22:40:31.132Z,112.93
2018-11-05T22:42:59.439Z,108.30
2018-11-05T22:45:27.687Z,116.67
2018-11-05T22:47:55.872Z,107.70
2018-11-05T22:50:24.841Z,92.67
2018-11-05T22:52:53.208Z,103.17
2018-11-05T22:55:21.385Z,94.10
2018-11-05T22:57:49.584Z,87.37
2018-11-05T23:00:23.919Z,90.20
2018-11-05T23:02:57.654Z,85.47
2018-11-05T23:05:25.965Z,93.50
2018-11-05T23:07:55.137Z,84.63
2018-11-05T23:10:23.355Z,100.60
2018-11-05T23:12:51.682Z,97.17
2018-11-05T23:15:20.516Z,85.37
2018-11-05T23:17:49.169Z,86.73
2018-11-05T23:20:17.450Z,142.63
2018-11-05T23:22:45.669Z,127.70
2018-11-05T23:25:14.028Z,141.37
2018-11-05T23:27:42.335Z,129.63
2018-11-05T23:30:12.315Z,132.03
2018-11-05T23:32:40.707Z,137.33
2018-11-05T23:35:09.807Z,115.67
2018-11-05T23:37:39.111Z,94.53
2018-11-05T23:40:08.082Z,119.50
2018-11-05T23:42:37.334Z,109.20
2018-11-05T23:45:10.054Z,130.07
2018-11-05T23:47:38.191Z,97.97
2018-11-05T23:50:06.979Z,119.27
2018-11-05T23:52:37.097Z,105.53
2018-11-05T23:55:06.378Z,123.00
2018-11-05T23:57:34.721Z,125.27
